sensor_id;sensor_type;location;lat;lon;timestamp;pressure;altitude;pressure_sealevel;temperature;humidity
78643;BME280;67954;47.618;17.606;2023-07-31T00:00:17;100095.09;;;19.24;87.63
78643;BME280;67954;47.618;17.606;2023-07-31T00:00:49;100093.22;;;19.24;87.60
78643;BME280;67954;47.618;17.606;2023-07-31T00:01:20;100096.34;;;19.21;88.44
78643;BME280;67954;47.618;17.606;2023-07-31T00:01:50;100098.88;;;19.23;87.62
78643;BME280;67954;47.618;17.606;2023-07-31T00:02:21;100090.91;;;19.21;88.48
78643;BME280;67954;47.618;17.606;2023-07-31T00:02:54;100099.72;;;19.23;88.30
78643;BME280;67954;47.618;17.606;2023-07-31T00:03:25;100092.56;;;19.22;88.73
78643;BME280;67954;47.618;17.606;2023-07-31T00:03:55;100097.81;;;19.24;88.41
78643;BME280;67954;47.618;17.606;2023-07-31T00:04:26;100098.88;;;19.23;88.64
78643;BME280;67954;47.618;17.606;2023-07-31T00:04:58;100094.69;;;19.20;88.77
78643;BME280;67954;47.618;17.606;2023-07-31T00:05:29;100100.53;;;19.24;88.07
78643;BME280;67954;47.618;17.606;2023-07-31T00:06:00;100092.38;;;19.17;88.64
78643;BME280;67954;47.618;17.606;2023-07-31T00:06:30;100092.38;;;19.17;88.79
78643;BME280;67954;47.618;17.606;2023-07-31T00:07:04;100091.34;;;19.18;88.05
78643;BME280;67954;47.618;17.606;2023-07-31T00:07:36;100094.25;;;19.17;88.45
78643;BME280;67954;47.618;17.606;2023-07-31T00:08:07;100090.06;;;19.14;88.67
78643;BME280;67954;47.618;17.606;2023-07-31T00:08:38;100097.00;;;19.17;88.76
78643;BME280;67954;47.618;17.606;2023-07-31T00:09:10;100091.75;;;19.15;89.10
78643;BME280;67954;47.618;17.606;2023-07-31T00:09:40;100084.38;;;19.09;88.41
78643;BME280;67954;47.618;17.606;2023-07-31T00:10:11;100091.97;;;19.07;88.30
78643;BME280;67954;47.618;17.606;2023-07-31T00:10:42;100089.22;;;19.07;88.59
78643;BME280;67954;47.618;17.606;2023-07-31T00:11:14;100079.59;;;19.05;88.77
78643;BME280;67954;47.618;17.606;2023-07-31T00:11:45;100087.13;;;19.03;89.54
78643;BME280;67954;47.618;17.606;2023-07-31T00:12:16;100092.53;;;18.96;88.97
78643;BME280;67954;47.618;17.606;2023-07-31T00:12:47;100090.03;;;18.95;89.25
78643;BME280;67954;47.618;17.606;2023-07-31T00:13:18;100095.69;;;19.00;89.36
78643;BME280;67954;47.618;17.606;2023-07-31T00:13:49;100090.25;;;19.00;88.82
78643;BME280;67954;47.618;17.606;2023-07-31T00:14:20;100087.53;;;19.00;89.67
78643;BME280;67954;47.618;17.606;2023-07-31T00:14:51;100087.53;;;19.00;89.24
78643;BME280;67954;47.618;17.606;2023-07-31T00:15:22;100091.09;;;19.00;89.15
78643;BME280;67954;47.618;17.606;2023-07-31T00:15:53;100092.13;;;18.99;89.86
78643;BME280;67954;47.618;17.606;2023-07-31T00:16:24;100091.69;;;18.96;89.42
78643;BME280;67954;47.618;17.606;2023-07-31T00:16:55;100086.25;;;18.96;89.64
78643;BME280;67954;47.618;17.606;2023-07-31T00:17:27;100087.94;;;18.97;89.15
78643;BME280;67954;47.618;17.606;2023-07-31T00:17:57;100098.81;;;18.97;90.00
78643;BME280;67954;47.618;17.606;2023-07-31T00:18:28;100096.53;;;18.94;89.95
78643;BME280;67954;47.618;17.606;2023-07-31T00:18:59;100089.81;;;18.96;90.30
78643;BME280;67954;47.618;17.606;2023-07-31T00:19:31;100087.31;;;18.95;90.51
78643;BME280;67954;47.618;17.606;2023-07-31T00:20:02;100095.88;;;18.91;89.92
78643;BME280;67954;47.618;17.606;2023-07-31T00:20:33;100092.31;;;18.91;90.12
78643;BME280;67954;47.618;17.606;2023-07-31T00:21:03;100086.25;;;18.89;89.99
78643;BME280;67954;47.618;17.606;2023-07-31T00:21:34;100086.25;;;18.89;90.14
78643;BME280;67954;47.618;17.606;2023-07-31T00:22:07;100087.09;;;18.89;90.15
78643;BME280;67954;47.618;17.606;2023-07-31T00:22:38;100086.25;;;18.89;90.28
78643;BME280;67954;47.618;17.606;2023-07-31T00:23:09;100092.09;;;18.86;90.31
78643;BME280;67954;47.618;17.606;2023-07-31T00:23:40;100091.88;;;18.87;89.53
78643;BME280;67954;47.618;17.606;2023-07-31T00:24:12;100089.78;;;18.83;90.49
78643;BME280;67954;47.618;17.606;2023-07-31T00:24:42;100094.41;;;18.82;90.47
78643;BME280;67954;47.618;17.606;2023-07-31T00:25:13;100090.63;;;18.83;90.28
78643;BME280;67954;47.618;17.606;2023-07-31T00:25:44;100090.00;;;18.81;89.79
78643;BME280;67954;47.618;17.606;2023-07-31T00:26:16;100092.28;;;18.78;90.60
78643;BME280;67954;47.618;17.606;2023-07-31T00:26:47;100100.47;;;18.78;90.93
78643;BME280;67954;47.618;17.606;2023-07-31T00:27:17;100094.56;;;18.74;90.80
78643;BME280;67954;47.618;17.606;2023-07-31T00:27:48;100097.28;;;18.68;90.70
78643;BME280;67954;47.618;17.606;2023-07-31T00:28:19;100095.59;;;18.67;90.59
78643;BME280;67954;47.618;17.606;2023-07-31T00:28:51;100099.16;;;18.67;91.18
78643;BME280;67954;47.618;17.606;2023-07-31T00:29:21;100105.44;;;18.68;91.33
78643;BME280;67954;47.618;17.606;2023-07-31T00:29:52;100101.91;;;18.67;91.47
78643;BME280;67954;47.618;17.606;2023-07-31T00:30:23;100106.25;;;18.62;90.78
78643;BME280;67954;47.618;17.606;2023-07-31T00:30:55;100111.28;;;18.65;91.01
78643;BME280;67954;47.618;17.606;2023-07-31T00:31:26;100105.66;;;18.66;91.03
78643;BME280;67954;47.618;17.606;2023-07-31T00:31:57;100104.63;;;18.67;90.59
78643;BME280;67954;47.618;17.606;2023-07-31T00:32:29;100104.16;;;18.64;91.11
78643;BME280;67954;47.618;17.606;2023-07-31T00:33:00;100102.50;;;18.63;91.53
78643;BME280;67954;47.618;17.606;2023-07-31T00:33:31;100104.38;;;18.62;91.54
78643;BME280;67954;47.618;17.606;2023-07-31T00:34:02;100107.94;;;18.63;91.00
78643;BME280;67954;47.618;17.606;2023-07-31T00:34:34;100107.94;;;18.63;91.02
78643;BME280;67954;47.618;17.606;2023-07-31T00:35:05;100108.78;;;18.63;91.50
78643;BME280;67954;47.618;17.606;2023-07-31T00:35:36;100111.50;;;18.63;91.71
78643;BME280;67954;47.618;17.606;2023-07-31T00:36:07;100106.88;;;18.64;91.01
78643;BME280;67954;47.618;17.606;2023-07-31T00:36:38;100110.66;;;18.63;91.59
78643;BME280;67954;47.618;17.606;2023-07-31T00:37:10;100115.44;;;18.61;91.72
78643;BME280;67954;47.618;17.606;2023-07-31T00:37:41;100107.88;;;18.56;90.86
78643;BME280;67954;47.618;17.606;2023-07-31T00:38:12;100113.97;;;18.58;90.87
78643;BME280;67954;47.618;17.606;2023-07-31T00:38:44;100110.22;;;18.59;91.29
78643;BME280;67954;47.618;17.606;2023-07-31T00:39:15;100113.34;;;18.56;91.30
78643;BME280;67954;47.618;17.606;2023-07-31T00:39:45;100109.53;;;18.50;91.31
78643;BME280;67954;47.618;17.606;2023-07-31T00:40:16;100117.25;;;18.47;91.75
78643;BME280;67954;47.618;17.606;2023-07-31T00:40:48;100119.97;;;18.47;91.00
78643;BME280;67954;47.618;17.606;2023-07-31T00:41:19;100123.13;;;18.50;91.37
78643;BME280;67954;47.618;17.606;2023-07-31T00:41:50;100119.16;;;18.53;91.36
78643;BME280;67954;47.618;17.606;2023-07-31T00:42:21;100118.28;;;18.46;91.68
78643;BME280;67954;47.618;17.606;2023-07-31T00:42:52;100113.28;;;18.43;90.94
78643;BME280;67954;47.618;17.606;2023-07-31T00:43:24;100116.41;;;18.46;91.38
78643;BME280;67954;47.618;17.606;2023-07-31T00:43:55;100119.56;;;18.50;90.63
78643;BME280;67954;47.618;17.606;2023-07-31T00:44:25;100116.44;;;18.53;91.34
78643;BME280;67954;47.618;17.606;2023-07-31T00:44:57;100111.81;;;18.47;90.79
78643;BME280;67954;47.618;17.606;2023-07-31T00:45:28;100120.41;;;18.50;90.15
78643;BME280;67954;47.618;17.606;2023-07-31T00:45:59;100114.97;;;18.50;91.02
78643;BME280;67954;47.618;17.606;2023-07-31T00:46:31;100110.38;;;18.51;90.95
78643;BME280;67954;47.618;17.606;2023-07-31T00:47:02;100110.38;;;18.51;91.24
78643;BME280;67954;47.618;17.606;2023-07-31T00:47:33;100110.38;;;18.51;90.82
78643;BME280;67954;47.618;17.606;2023-07-31T00:48:04;100108.69;;;18.50;90.46
78643;BME280;67954;47.618;17.606;2023-07-31T00:48:39;100111.41;;;18.50;90.84
78643;BME280;67954;47.618;17.606;2023-07-31T00:49:11;100111.22;;;18.51;90.98
78643;BME280;67954;47.618;17.606;2023-07-31T00:49:42;100112.66;;;18.47;91.54
78643;BME280;67954;47.618;17.606;2023-07-31T00:50:14;100107.41;;;18.46;90.85
78643;BME280;67954;47.618;17.606;2023-07-31T00:50:45;100114.31;;;18.48;91.02
78643;BME280;67954;47.618;17.606;2023-07-31T00:51:16;100114.13;;;18.50;91.44
78643;BME280;67954;47.618;17.606;2023-07-31T00:51:47;100111.81;;;18.47;91.32
78643;BME280;67954;47.618;17.606;2023-07-31T00:52:20;100117.03;;;18.48;90.33
78643;BME280;67954;47.618;17.606;2023-07-31T00:52:51;100114.31;;;18.48;91.40
78643;BME280;67954;47.618;17.606;2023-07-31T00:53:24;100116.19;;;18.48;90.97
78643;BME280;67954;47.618;17.606;2023-07-31T00:53:55;100109.09;;;18.47;90.67
78643;BME280;67954;47.618;17.606;2023-07-31T00:54:27;100115.38;;;18.47;90.91
78643;BME280;67954;47.618;17.606;2023-07-31T00:54:58;100109.72;;;18.49;91.23
78643;BME280;67954;47.618;17.606;2023-07-31T00:55:29;100111.59;;;18.48;90.71
78643;BME280;67954;47.618;17.606;2023-07-31T00:56:01;100108.03;;;18.48;90.85
78643;BME280;67954;47.618;17.606;2023-07-31T00:56:33;100112.44;;;18.49;91.46
78643;BME280;67954;47.618;17.606;2023-07-31T00:57:04;100108.25;;;18.46;90.66
78643;BME280;67954;47.618;17.606;2023-07-31T00:57:36;100114.13;;;18.43;90.47
78643;BME280;67954;47.618;17.606;2023-07-31T00:58:08;100118.47;;;18.44;90.78
78643;BME280;67954;47.618;17.606;2023-07-31T00:58:40;100116.84;;;18.43;91.77
78643;BME280;67954;47.618;17.606;2023-07-31T00:59:11;100121.00;;;18.46;91.13
78643;BME280;67954;47.618;17.606;2023-07-31T00:59:42;100123.31;;;18.49;91.19
78643;BME280;67954;47.618;17.606;2023-07-31T01:00:13;100124.56;;;18.46;91.12
78643;BME280;67954;47.618;17.606;2023-07-31T01:00:44;100123.09;;;18.44;90.94
78643;BME280;67954;47.618;17.606;2023-07-31T01:01:15;100125.81;;;18.44;90.47
78643;BME280;67954;47.618;17.606;2023-07-31T01:01:46;100130.84;;;18.47;91.13
78643;BME280;67954;47.618;17.606;2023-07-31T01:02:17;100119.97;;;18.47;91.31
78643;BME280;67954;47.618;17.606;2023-07-31T01:02:51;100125.22;;;18.48;90.79
78643;BME280;67954;47.618;17.606;2023-07-31T01:03:22;100127.94;;;18.48;90.49
78643;BME280;67954;47.618;17.606;2023-07-31T01:03:53;100129.41;;;18.51;91.21
78643;BME280;67954;47.618;17.606;2023-07-31T01:04:24;100123.09;;;18.44;91.03
78643;BME280;67954;47.618;17.606;2023-07-31T01:04:56;100128.69;;;18.36;91.38
78643;BME280;67954;47.618;17.606;2023-07-31T01:05:43;100132.06;;;18.38;88.61
78643;BME280;67954;47.618;17.606;2023-07-31T01:06:30;100130.44;;;18.43;89.40
78643;BME280;67954;47.618;17.606;2023-07-31T01:07:13;100129.59;;;18.43;90.07
78643;BME280;67954;47.618;17.606;2023-07-31T01:07:52;100123.31;;;18.49;90.18
78643;BME280;67954;47.618;17.606;2023-07-31T01:08:33;100127.94;;;18.48;90.73
78643;BME280;67954;47.618;17.606;2023-07-31T01:09:13;100131.28;;;18.50;90.21
78643;BME280;67954;47.618;17.606;2023-07-31T01:09:52;100127.53;;;18.51;89.93
78643;BME280;67954;47.618;17.606;2023-07-31T01:10:32;100127.72;;;18.50;89.47
78643;BME280;67954;47.618;17.606;2023-07-31T01:11:12;100127.72;;;18.50;89.51
78643;BME280;67954;47.618;17.606;2023-07-31T01:11:50;100125.41;;;18.47;89.49
78643;BME280;67954;47.618;17.606;2023-07-31T01:12:24;100128.97;;;18.47;89.67
78643;BME280;67954;47.618;17.606;2023-07-31T01:12:58;100134.00;;;18.50;88.83
78643;BME280;67954;47.618;17.606;2023-07-31T01:13:29;100137.78;;;18.49;89.34
78643;BME280;67954;47.618;17.606;2023-07-31T01:14:00;100138.16;;;18.46;89.69
78643;BME280;67954;47.618;17.606;2023-07-31T01:14:31;100140.88;;;18.46;89.69
78643;BME280;67954;47.618;17.606;2023-07-31T01:15:04;100137.97;;;18.48;89.79
78643;BME280;67954;47.618;17.606;2023-07-31T01:15:36;100136.09;;;18.48;89.81
78643;BME280;67954;47.618;17.606;2023-07-31T01:16:07;100137.13;;;18.47;89.76
78643;BME280;67954;47.618;17.606;2023-07-31T01:16:38;100138.16;;;18.46;90.19
78643;BME280;67954;47.618;17.606;2023-07-31T01:17:09;100137.31;;;18.46;89.89
78643;BME280;67954;47.618;17.606;2023-07-31T01:17:41;100136.69;;;18.44;90.52
78643;BME280;67954;47.618;17.606;2023-07-31T01:18:12;100141.50;;;18.42;90.06
78643;BME280;67954;47.618;17.606;2023-07-31T01:18:43;100142.09;;;18.37;89.91
78643;BME280;67954;47.618;17.606;2023-07-31T01:19:18;100136.28;;;18.40;90.18
78643;BME280;67954;47.618;17.606;2023-07-31T01:19:52;100144.81;;;18.37;90.80
78643;BME280;67954;47.618;17.606;2023-07-31T01:20:26;100132.06;;;18.38;90.36
78643;BME280;67954;47.618;17.606;2023-07-31T01:21:07;100133.75;;;18.39;90.52
78643;BME280;67954;47.618;17.606;2023-07-31T01:22:02;100128.31;;;18.39;89.81
78643;BME280;67954;47.618;17.606;2023-07-31T01:23:06;100134.59;;;18.39;90.30
78643;BME280;67954;47.618;17.606;2023-07-31T01:23:56;100132.91;;;18.38;89.87
78643;BME280;67954;47.618;17.606;2023-07-31T01:24:38;100133.09;;;18.37;89.88
78643;BME280;67954;47.618;17.606;2023-07-31T01:25:23;100128.22;;;18.26;90.11
78643;BME280;67954;47.618;17.606;2023-07-31T01:26:05;100145.19;;;18.28;90.78
78643;BME280;67954;47.618;17.606;2023-07-31T01:26:44;100139.31;;;18.24;90.64
78643;BME280;67954;47.618;17.606;2023-07-31T01:27:21;100142.03;;;18.24;89.51
78643;BME280;67954;47.618;17.606;2023-07-31T01:27:59;100137.44;;;18.25;89.72
78643;BME280;67954;47.618;17.606;2023-07-31T01:28:38;100139.06;;;18.19;90.11
78643;BME280;67954;47.618;17.606;2023-07-31T01:29:19;100137.16;;;18.13;90.46
78643;BME280;67954;47.618;17.606;2023-07-31T01:29:59;100136.56;;;18.17;90.56
78643;BME280;67954;47.618;17.606;2023-07-31T01:30:33;100144.06;;;18.15;90.12
78643;BME280;67954;47.618;17.606;2023-07-31T01:31:07;100136.50;;;18.11;90.25
78643;BME280;67954;47.618;17.606;2023-07-31T01:31:46;100136.31;;;18.12;89.82
78643;BME280;67954;47.618;17.606;2023-07-31T01:32:19;100131.44;;;18.01;90.54
78643;BME280;67954;47.618;17.606;2023-07-31T01:32:52;100135.56;;;17.97;90.04
78643;BME280;67954;47.618;17.606;2023-07-31T01:33:26;100130.34;;;17.96;90.05
78643;BME280;67954;47.618;17.606;2023-07-31T01:34:00;100135.78;;;17.96;90.13
78643;BME280;67954;47.618;17.606;2023-07-31T01:34:32;100132.47;;;18.00;90.12
78643;BME280;67954;47.618;17.606;2023-07-31T01:35:04;100126.56;;;17.97;90.89
78643;BME280;67954;47.618;17.606;2023-07-31T01:35:37;100134.53;;;17.98;90.94
78643;BME280;67954;47.618;17.606;2023-07-31T01:36:09;100137.72;;;18.02;90.69
78643;BME280;67954;47.618;17.606;2023-07-31T01:36:40;100130.13;;;17.97;90.55
78643;BME280;67954;47.618;17.606;2023-07-31T01:37:11;100127.38;;;17.91;90.46
78643;BME280;67954;47.618;17.606;2023-07-31T01:37:42;100130.50;;;17.88;90.91
78643;BME280;67954;47.618;17.606;2023-07-31T01:38:13;100132.38;;;17.87;90.91
78643;BME280;67954;47.618;17.606;2023-07-31T01:38:44;100143.06;;;17.89;91.20
78643;BME280;67954;47.618;17.606;2023-07-31T01:39:15;100133.03;;;17.89;91.48
78643;BME280;67954;47.618;17.606;2023-07-31T01:39:47;100130.22;;;17.82;91.46
78643;BME280;67954;47.618;17.606;2023-07-31T01:40:17;100120.66;;;17.87;91.51
78643;BME280;67954;47.618;17.606;2023-07-31T01:40:51;100127.97;;;17.86;90.79
78643;BME280;67954;47.618;17.606;2023-07-31T01:41:24;100133.34;;;17.79;90.92
78643;BME280;67954;47.618;17.606;2023-07-31T01:41:55;100129.59;;;17.80;91.16
78643;BME280;67954;47.618;17.606;2023-07-31T01:42:26;100128.16;;;17.84;91.39
78643;BME280;67954;47.618;17.606;2023-07-31T01:42:57;100128.44;;;17.90;91.11
78643;BME280;67954;47.618;17.606;2023-07-31T01:43:28;100126.13;;;17.93;90.75
78643;BME280;67954;47.618;17.606;2023-07-31T01:44:00;100125.50;;;17.91;89.72
78643;BME280;67954;47.618;17.606;2023-07-31T01:44:31;100129.66;;;17.87;90.11
78643;BME280;67954;47.618;17.606;2023-07-31T01:45:03;100126.94;;;17.87;90.64
78643;BME280;67954;47.618;17.606;2023-07-31T01:45:34;100125.94;;;17.95;90.02
78643;BME280;67954;47.618;17.606;2023-07-31T01:46:06;100131.44;;;18.01;90.01
78643;BME280;67954;47.618;17.606;2023-07-31T01:46:37;100125.59;;;18.04;90.18
78643;BME280;67954;47.618;17.606;2023-07-31T01:47:07;100126.22;;;18.06;90.19
78643;BME280;67954;47.618;17.606;2023-07-31T01:47:39;100123.31;;;18.08;89.36
78643;BME280;67954;47.618;17.606;2023-07-31T01:48:10;100121.03;;;18.11;90.21
78643;BME280;67954;47.618;17.606;2023-07-31T01:48:41;100125.44;;;18.12;89.86
78643;BME280;67954;47.618;17.606;2023-07-31T01:49:12;100130.69;;;18.14;90.64
78643;BME280;67954;47.618;17.606;2023-07-31T01:49:43;100122.91;;;18.11;90.95
78643;BME280;67954;47.618;17.606;2023-07-31T01:50:14;100117.88;;;18.08;89.97
78643;BME280;67954;47.618;17.606;2023-07-31T01:50:45;100121.03;;;18.11;90.11
78643;BME280;67954;47.618;17.606;2023-07-31T01:51:16;100125.63;;;18.11;89.90
78643;BME280;67954;47.618;17.606;2023-07-31T01:51:47;100116.00;;;18.08;89.91
78643;BME280;67954;47.618;17.606;2023-07-31T01:52:19;100117.22;;;18.06;89.85
78643;BME280;67954;47.618;17.606;2023-07-31T01:52:49;100125.38;;;18.06;90.22
78643;BME280;67954;47.618;17.606;2023-07-31T01:53:20;100121.63;;;18.07;90.29
78643;BME280;67954;47.618;17.606;2023-07-31T01:53:51;100124.53;;;18.05;90.34
78643;BME280;67954;47.618;17.606;2023-07-31T01:54:22;100125.81;;;18.09;90.18
78643;BME280;67954;47.618;17.606;2023-07-31T01:54:53;100125.63;;;18.11;89.89
78643;BME280;67954;47.618;17.606;2023-07-31T01:55:24;100125.59;;;18.04;90.78
78643;BME280;67954;47.618;17.606;2023-07-31T01:55:55;100130.78;;;17.99;89.92
78643;BME280;67954;47.618;17.606;2023-07-31T01:56:27;100126.56;;;17.97;90.97
78643;BME280;67954;47.618;17.606;2023-07-31T01:56:59;100120.94;;;17.98;90.76
78643;BME280;67954;47.618;17.606;2023-07-31T01:57:30;100129.56;;;18.02;90.30
78643;BME280;67954;47.618;17.606;2023-07-31T01:58:01;100129.94;;;17.99;90.29
78643;BME280;67954;47.618;17.606;2023-07-31T01:58:32;100125.34;;;17.99;90.24
78643;BME280;67954;47.618;17.606;2023-07-31T01:59:03;100130.59;;;18.01;90.71
78643;BME280;67954;47.618;17.606;2023-07-31T01:59:34;100125.81;;;18.03;90.29
78643;BME280;67954;47.618;17.606;2023-07-31T02:00:06;100131.66;;;18.06;89.49
78643;BME280;67954;47.618;17.606;2023-07-31T02:00:38;100126.22;;;18.06;89.67
78643;BME280;67954;47.618;17.606;2023-07-31T02:01:09;100122.66;;;18.06;90.04
78643;BME280;67954;47.618;17.606;2023-07-31T02:01:39;100126.88;;;18.08;89.95
78643;BME280;67954;47.618;17.606;2023-07-31T02:02:10;100124.53;;;18.05;90.17
78643;BME280;67954;47.618;17.606;2023-07-31T02:02:42;100126.88;;;18.08;89.54
78643;BME280;67954;47.618;17.606;2023-07-31T02:03:13;100128.53;;;18.09;90.21
78643;BME280;67954;47.618;17.606;2023-07-31T02:03:44;100129.59;;;18.08;89.63
78643;BME280;67954;47.618;17.606;2023-07-31T02:04:15;100127.91;;;18.07;89.56
78643;BME280;67954;47.618;17.606;2023-07-31T02:04:46;100135.84;;;18.02;89.90
78643;BME280;67954;47.618;17.606;2023-07-31T02:05:17;100126.84;;;18.02;90.47
78643;BME280;67954;47.618;17.606;2023-07-31T02:05:49;100133.50;;;17.99;90.20
78643;BME280;67954;47.618;17.606;2023-07-31T02:06:21;100133.97;;;18.03;90.86
78643;BME280;67954;47.618;17.606;2023-07-31T02:06:53;100134.78;;;18.03;90.72
78643;BME280;67954;47.618;17.606;2023-07-31T02:07:24;100142.72;;;18.05;90.06
78643;BME280;67954;47.618;17.606;2023-07-31T02:07:55;100135.22;;;18.07;90.46
78643;BME280;67954;47.618;17.606;2023-07-31T02:08:26;100135.41;;;18.05;90.43
78643;BME280;67954;47.618;17.606;2023-07-31T02:08:57;100136.91;;;18.08;90.22
78643;BME280;67954;47.618;17.606;2023-07-31T02:09:28;100136.50;;;18.11;90.17
78643;BME280;67954;47.618;17.606;2023-07-31T02:09:58;100141.94;;;18.11;90.04
78643;BME280;67954;47.618;17.606;2023-07-31T02:10:30;100139.41;;;18.09;90.69
78643;BME280;67954;47.618;17.606;2023-07-31T02:11:01;100138.13;;;18.05;90.41
78643;BME280;67954;47.618;17.606;2023-07-31T02:11:33;100146.28;;;18.05;90.31
78643;BME280;67954;47.618;17.606;2023-07-31T02:12:05;100143.56;;;18.05;90.17
78643;BME280;67954;47.618;17.606;2023-07-31T02:12:38;100141.47;;;18.01;91.06
78643;BME280;67954;47.618;17.606;2023-07-31T02:13:09;100144.81;;;18.03;91.03
78643;BME280;67954;47.618;17.606;2023-07-31T02:13:40;100144.00;;;18.02;90.28
78643;BME280;67954;47.618;17.606;2023-07-31T02:14:12;100143.94;;;17.96;90.89
78643;BME280;67954;47.618;17.606;2023-07-31T02:14:43;100145.59;;;17.97;90.34
78643;BME280;67954;47.618;17.606;2023-07-31T02:15:13;100137.91;;;18.00;90.55
78643;BME280;67954;47.618;17.606;2023-07-31T02:15:45;100143.09;;;17.95;90.33
78643;BME280;67954;47.618;17.606;2023-07-31T02:16:17;100158.56;;;17.95;90.15
78643;BME280;67954;47.618;17.606;2023-07-31T02:16:47;100150.84;;;17.98;90.04
78643;BME280;67954;47.618;17.606;2023-07-31T02:17:18;100153.75;;;17.97;90.37
78643;BME280;67954;47.618;17.606;2023-07-31T02:17:49;100148.72;;;17.94;91.17
78643;BME280;67954;47.618;17.606;2023-07-31T02:18:21;100149.75;;;17.93;90.98
78643;BME280;67954;47.618;17.606;2023-07-31T02:18:52;100156.03;;;17.93;90.58
78643;BME280;67954;47.618;17.606;2023-07-31T02:19:23;100153.13;;;17.95;90.94
78643;BME280;67954;47.618;17.606;2023-07-31T02:19:54;100150.59;;;17.93;91.01
78643;BME280;67954;47.618;17.606;2023-07-31T02:20:26;100152.28;;;17.94;90.56
78643;BME280;67954;47.618;17.606;2023-07-31T02:20:56;100153.97;;;17.95;90.21
78643;BME280;67954;47.618;17.606;2023-07-31T02:21:27;100157.31;;;17.97;90.75
78643;BME280;67954;47.618;17.606;2023-07-31T02:21:59;100159.84;;;17.99;90.16
78643;BME280;67954;47.618;17.606;2023-07-31T02:22:30;100150.00;;;17.98;90.43
78643;BME280;67954;47.618;17.606;2023-07-31T02:23:00;100155.00;;;17.94;90.23
78643;BME280;67954;47.618;17.606;2023-07-31T02:23:31;100156.66;;;17.95;89.84
78643;BME280;67954;47.618;17.606;2023-07-31T02:24:04;100153.97;;;17.95;89.72
78643;BME280;67954;47.618;17.606;2023-07-31T02:24:34;100155.63;;;17.96;89.58
78643;BME280;67954;47.618;17.606;2023-07-31T02:25:06;100153.13;;;17.95;89.82
78643;BME280;67954;47.618;17.606;2023-07-31T02:25:37;100150.59;;;17.93;90.48
78643;BME280;67954;47.618;17.606;2023-07-31T02:26:08;100154.34;;;17.92;90.72
78643;BME280;67954;47.618;17.606;2023-07-31T02:26:41;100156.63;;;17.89;91.01
78643;BME280;67954;47.618;17.606;2023-07-31T02:27:12;100163.56;;;17.91;90.35
78643;BME280;67954;47.618;17.606;2023-07-31T02:27:43;100164.59;;;17.90;89.94
78643;BME280;67954;47.618;17.606;2023-07-31T02:28:15;100155.41;;;17.91;89.90
78643;BME280;67954;47.618;17.606;2023-07-31T02:28:46;100158.31;;;17.90;90.80
78643;BME280;67954;47.618;17.606;2023-07-31T02:29:16;100158.50;;;17.88;89.95
78643;BME280;67954;47.618;17.606;2023-07-31T02:29:48;100156.63;;;17.89;90.83
78643;BME280;67954;47.618;17.606;2023-07-31T02:30:19;100154.97;;;17.88;89.80
78643;BME280;67954;47.618;17.606;2023-07-31T02:30:50;100161.22;;;17.88;90.59
78643;BME280;67954;47.618;17.606;2023-07-31T02:31:21;100157.22;;;17.84;90.28
78643;BME280;67954;47.618;17.606;2023-07-31T02:31:53;100154.69;;;17.82;90.38
78643;BME280;67954;47.618;17.606;2023-07-31T02:32:24;100163.22;;;17.79;90.30
78643;BME280;67954;47.618;17.606;2023-07-31T02:32:55;100154.25;;;17.79;90.05
78643;BME280;67954;47.618;17.606;2023-07-31T02:33:25;100153.66;;;17.83;90.89
78643;BME280;67954;47.618;17.606;2023-07-31T02:33:57;100153.47;;;17.85;90.48
78643;BME280;67954;47.618;17.606;2023-07-31T02:34:28;100151.59;;;17.85;90.21
78643;BME280;67954;47.618;17.606;2023-07-31T02:34:59;100153.09;;;17.88;90.89
78643;BME280;67954;47.618;17.606;2023-07-31T02:35:29;100144.09;;;17.88;91.16
78643;BME280;67954;47.618;17.606;2023-07-31T02:36:01;100146.81;;;17.88;90.46
78643;BME280;67954;47.618;17.606;2023-07-31T02:36:32;100149.53;;;17.88;90.30
78643;BME280;67954;47.618;17.606;2023-07-31T02:37:03;100143.25;;;17.87;90.88
78643;BME280;67954;47.618;17.606;2023-07-31T02:37:35;100146.16;;;17.85;90.80
78643;BME280;67954;47.618;17.606;2023-07-31T02:38:06;100149.72;;;17.86;90.65
78643;BME280;67954;47.618;17.606;2023-07-31T02:38:37;100139.88;;;17.85;91.01
78643;BME280;67954;47.618;17.606;2023-07-31T02:39:09;100142.41;;;17.87;90.91
78643;BME280;67954;47.618;17.606;2023-07-31T02:39:40;100137.81;;;17.87;91.32
78643;BME280;67954;47.618;17.606;2023-07-31T02:40:11;100135.09;;;17.87;91.20
78643;BME280;67954;47.618;17.606;2023-07-31T02:40:42;100139.22;;;17.83;90.59
78643;BME280;67954;47.618;17.606;2023-07-31T02:41:14;100138.00;;;17.85;91.05
78643;BME280;67954;47.618;17.606;2023-07-31T02:41:46;100138.38;;;17.82;90.26
78643;BME280;67954;47.618;17.606;2023-07-31T02:42:17;100135.47;;;17.84;91.10
78643;BME280;67954;47.618;17.606;2023-07-31T02:42:48;100131.28;;;17.81;91.22
78643;BME280;67954;47.618;17.606;2023-07-31T02:43:19;100141.31;;;17.81;90.78
78643;BME280;67954;47.618;17.606;2023-07-31T02:43:50;100135.56;;;17.69;90.01
78643;BME280;67954;47.618;17.606;2023-07-31T02:44:21;100131.88;;;17.56;90.12
78643;BME280;67954;47.618;17.606;2023-07-31T02:44:52;100142.41;;;17.44;90.73
78643;BME280;67954;47.618;17.606;2023-07-31T02:45:26;100139.50;;;17.45;91.22
78643;BME280;67954;47.618;17.606;2023-07-31T02:45:57;100141.00;;;17.48;91.15
78643;BME280;67954;47.618;17.606;2023-07-31T02:46:27;100145.63;;;17.54;91.14